Terminal Aerodrome Forecast
Issued by NWS

Home | Current Version | Previous Version | Text Only | Print | Product List | Glossary On
Versions: 1 2 3 4 5 6 7 8 9 10 11 12 13 14 15 16 17 18 19 20 21 22 23 24
103
FTUS44 KOHX 261721
TAFCKV
TAF
KCKV 261721Z 2618/2718 10005KT P6SM SCT045 SCT250
     FM262000 05006KT P6SM VCTS BKN050CB
     FM270300 00000KT P6SM FEW060 SCT150
      TEMPO 2708/2712 5SM BR=

USA.gov is the U.S. government's official web portal to all federal, state and local government web resources and services.